createdAt,value
2023-04-02T00:01:38.547Z,84.18
2023-04-02T00:04:30.361Z,83.95
2023-04-02T00:07:33.769Z,84.26
2023-04-02T00:10:02.642Z,84.25
2023-04-02T00:12:31.118Z,84.51
2023-04-02T00:15:00.426Z,84.51
2023-04-02T00:17:29.223Z,84.20
2023-04-02T00:20:06.631Z,84.26
2023-04-02T00:22:35.053Z,84.52
2023-04-02T00:25:12.700Z,84.15
2023-04-02T00:27:41.544Z,84.07
2023-04-02T00:30:13.660Z,84.34
2023-04-02T00:32:42.949Z,84.28
2023-04-02T00:35:25.624Z,84.75
2023-04-02T00:37:55.084Z,84.94
2023-04-02T00:40:25.792Z,85.00
2023-04-02T00:42:58.305Z,84.51
2023-04-02T00:45:31.297Z,84.13
2023-04-02T00:48:16.760Z,83.75
2023-04-02T00:50:46.489Z,83.56
2023-04-02T00:53:29.922Z,83.45
2023-04-02T00:55:59.365Z,83.42
2023-04-02T00:58:30.121Z,83.47
2023-04-02T01:00:59.639Z,83.79
2023-04-02T01:03:39.296Z,83.74
2023-04-02T01:06:15.661Z,83.52
2023-04-02T01:09:27.755Z,83.23
2023-04-02T01:12:26.939Z,83.16
2023-04-02T01:15:19.825Z,83.52
2023-04-02T01:18:02.535Z,83.77
2023-04-02T01:21:09.238Z,83.50
2023-04-02T01:24:07.924Z,83.71
2023-04-02T01:27:09.156Z,83.75
2023-04-02T01:29:45.632Z,83.72
2023-04-02T01:32:17.710Z,83.54
2023-04-02T01:34:47.724Z,83.58
2023-04-02T01:37:50.483Z,83.73
2023-04-02T01:40:54.592Z,83.89
2023-04-02T01:43:26.347Z,84.11
2023-04-02T01:45:58.593Z,84.14
2023-04-02T01:48:31.096Z,84.09
2023-04-02T01:51:03.951Z,83.80
2023-04-02T01:53:32.570Z,84.11
2023-04-02T01:56:02.837Z,84.63
2023-04-02T01:58:33.654Z,84.67
2023-04-02T02:01:14.875Z,84.51
2023-04-02T02:03:45.212Z,85.10
2023-04-02T02:06:16.644Z,85.26
2023-04-02T02:09:03.939Z,85.59
2023-04-02T02:11:34.002Z,85.94
2023-04-02T02:14:12.211Z,85.65
2023-04-02T02:16:44.590Z,85.72
2023-04-02T02:19:41.458Z,85.81
2023-04-02T02:22:31.196Z,85.78
2023-04-02T02:25:03.094Z,85.90
2023-04-02T02:27:51.438Z,85.89
2023-04-02T02:30:22.893Z,85.56
2023-04-02T02:33:03.513Z,85.96
2023-04-02T02:35:43.556Z,85.85
2023-04-02T02:38:27.442Z,85.94
2023-04-02T02:41:22.856Z,86.12
2023-04-02T02:44:05.152Z,85.89
2023-04-02T02:46:38.148Z,85.47
2023-04-02T02:49:14.602Z,85.27
2023-04-02T02:51:50.051Z,85.07
2023-04-02T02:54:22.218Z,85.08
2023-04-02T02:56:57.511Z,84.72
2023-04-02T02:59:28.605Z,84.94
2023-04-02T03:01:58.400Z,84.99
2023-04-02T03:04:30.795Z,84.92
2023-04-02T03:07:00.612Z,84.60
2023-04-02T03:09:39.508Z,83.93
2023-04-02T03:12:13.968Z,83.37
2023-04-02T03:15:01.337Z,83.11
2023-04-02T03:17:41.700Z,83.20
2023-04-02T03:20:27.828Z,83.07
2023-04-02T03:23:19.976Z,82.96
2023-04-02T03:26:21.288Z,83.00
2023-04-02T03:29:08.816Z,83.06
2023-04-02T03:31:41.957Z,82.88
2023-04-02T03:34:25.690Z,82.60
2023-04-02T03:37:04.853Z,82.35
2023-04-02T03:39:48.073Z,82.25
2023-04-02T03:42:26.171Z,82.28
2023-04-02T03:45:06.456Z,82.37
2023-04-02T03:47:51.419Z,82.44
2023-04-02T03:50:34.647Z,82.57
2023-04-02T03:53:05.414Z,82.96
2023-04-02T03:55:38.220Z,82.90
2023-04-02T03:58:17.606Z,83.25
2023-04-02T04:01:06.858Z,83.64
2023-04-02T04:03:52.942Z,84.62
2023-04-02T04:06:28.985Z,84.30
2023-04-02T04:09:37.404Z,84.30
2023-04-02T04:12:28.410Z,84.29
2023-04-02T04:15:29.334Z,84.35
2023-04-02T04:18:34.935Z,84.53
2023-04-02T04:21:30.320Z,84.23
2023-04-02T04:24:22.057Z,84.31
2023-04-02T04:27:04.796Z,84.33
2023-04-02T04:30:04.304Z,84.41
2023-04-02T04:32:39.291Z,84.68
2023-04-02T04:35:25.105Z,84.67
2023-04-02T04:38:05.976Z,84.45
2023-04-02T04:40:38.051Z,83.80
2023-04-02T04:43:19.122Z,83.65
2023-04-02T04:46:00.576Z,83.93
2023-04-02T04:48:37.991Z,84.07
2023-04-02T04:51:17.940Z,84.15
2023-04-02T04:53:49.632Z,84.56
2023-04-02T04:56:22.480Z,84.97
2023-04-02T04:59:13.895Z,85.06
2023-04-02T05:02:08.989Z,85.69
2023-04-02T05:04:40.833Z,85.62
2023-04-02T05:07:36.869Z,85.48
2023-04-02T05:10:18.199Z,85.18
2023-04-02T05:12:54.717Z,84.86
2023-04-02T05:15:32.514Z,84.77
2023-04-02T05:18:36.613Z,84.97
2023-04-02T05:21:52.483Z,84.95
2023-04-02T05:24:57.917Z,84.47
2023-04-02T05:27:52.975Z,84.48
2023-04-02T05:30:24.665Z,84.21
2023-04-02T05:33:00.736Z,84.40
2023-04-02T05:35:35.435Z,84.64
2023-04-02T05:38:06.753Z,84.68
2023-04-02T05:40:41.212Z,84.54
2023-04-02T05:43:14.158Z,84.97
2023-04-02T05:45:52.633Z,84.77
2023-04-02T05:48:32.784Z,85.18
2023-04-02T05:51:05.092Z,85.00
2023-04-02T05:53:38.222Z,85.77
2023-04-02T05:56:49.018Z,85.72
2023-04-02T05:59:27.516Z,85.71
2023-04-02T06:02:03.082Z,86.01
2023-04-02T06:04:50.596Z,86.29
2023-04-02T06:07:28.573Z,86.62
2023-04-02T06:10:08.305Z,87.09
2023-04-02T06:12:49.824Z,86.88
2023-04-02T06:15:25.021Z,86.93
2023-04-02T06:18:30.085Z,87.35
2023-04-02T06:21:00.916Z,87.39
2023-04-02T06:24:00.625Z,87.20
2023-04-02T06:26:56.532Z,86.90
2023-04-02T06:29:38.751Z,87.11
2023-04-02T06:32:11.758Z,87.08
2023-04-02T06:34:44.168Z,87.09
2023-04-02T06:37:43.079Z,86.90
2023-04-02T06:40:49.947Z,86.88
2023-04-02T06:43:49.842Z,86.80
2023-04-02T06:46:46.678Z,87.04
2023-04-02T06:49:31.745Z,87.54
2023-04-02T06:52:06.785Z,87.17
2023-04-02T06:54:35.575Z,87.46
2023-04-02T06:57:10.037Z,87.46
2023-04-02T06:59:41.577Z,87.38
2023-04-02T07:02:39.988Z,87.28
2023-04-02T07:05:11.916Z,87.35
2023-04-02T07:07:46.229Z,87.34
2023-04-02T07:10:15.818Z,87.31
2023-04-02T07:12:44.573Z,87.06
2023-04-02T07:15:19.356Z,87.17
2023-04-02T07:17:48.507Z,86.80
2023-04-02T07:20:29.929Z,87.12
2023-04-02T07:23:01.066Z,86.94
2023-04-02T07:25:29.666Z,86.77
2023-04-02T07:27:58.155Z,86.65
2023-04-02T07:30:26.836Z,86.75
2023-04-02T07:32:55.301Z,86.94
2023-04-02T07:35:24.118Z,86.89
2023-04-02T07:37:53.064Z,86.84
2023-04-02T07:40:23.169Z,86.62
2023-04-02T07:42:51.838Z,86.62
2023-04-02T07:45:20.523Z,86.81
2023-04-02T07:47:49.774Z,86.78
2023-04-02T07:50:18.523Z,86.79
2023-04-02T07:52:46.797Z,86.74
2023-04-02T07:55:17.135Z,86.76
2023-04-02T07:57:51.262Z,86.94
2023-04-02T08:00:20.850Z,87.43
2023-04-02T08:02:49.490Z,87.28
2023-04-02T08:05:18.338Z,87.67
2023-04-02T08:07:57.336Z,87.62
2023-04-02T08:10:25.652Z,87.62
2023-04-02T08:12:54.355Z,87.94
2023-04-02T08:15:22.634Z,87.90
2023-04-02T08:17:52.265Z,88.29
2023-04-02T08:20:22.506Z,88.22
2023-04-02T08:22:50.956Z,88.31
2023-04-02T08:25:19.445Z,88.23
2023-04-02T08:27:48.932Z,88.15
2023-04-02T08:30:18.365Z,88.51
2023-04-02T08:32:47.102Z,88.57
2023-04-02T08:35:17.078Z,88.67
2023-04-02T08:37:45.890Z,88.42
2023-04-02T08:40:27.653Z,88.99
2023-04-02T08:43:04.260Z,89.04
2023-04-02T08:46:07.881Z,89.20
2023-04-02T08:48:42.619Z,89.10
2023-04-02T08:51:34.600Z,89.29
2023-04-02T08:54:34.868Z,89.47
2023-04-02T08:57:16.603Z,89.48
2023-04-02T08:59:46.084Z,89.41
2023-04-02T09:02:37.544Z,89.24
2023-04-02T09:05:15.780Z,89.08
2023-04-02T09:07:44.285Z,89.02
2023-04-02T09:10:25.768Z,88.90
2023-04-02T09:12:54.766Z,89.04
2023-04-02T09:15:31.738Z,89.10
2023-04-02T09:18:11.973Z,88.95
2023-04-02T09:20:41.106Z,89.04
2023-04-02T09:23:29.750Z,88.90
2023-04-02T09:26:04.191Z,88.66
2023-04-02T09:28:33.583Z,88.46
2023-04-02T09:31:24.500Z,88.21
2023-04-02T09:33:54.867Z,88.04
2023-04-02T09:36:40.162Z,87.65
2023-04-02T09:39:23.868Z,87.78
2023-04-02T09:42:05.433Z,87.39
2023-04-02T09:44:35.243Z,87.62
2023-04-02T09:47:25.811Z,87.08
2023-04-02T09:49:54.194Z,86.94
2023-04-02T09:52:29.972Z,86.79
2023-04-02T09:55:21.049Z,86.18
2023-04-02T09:57:51.688Z,85.85
2023-04-02T10:03:07.188Z,85.63
2023-04-02T10:05:40.990Z,85.37
2023-04-02T10:08:20.221Z,85.44
2023-04-02T10:10:53.749Z,85.49
2023-04-02T10:13:54.138Z,85.15
2023-04-02T10:16:43.955Z,84.66
2023-04-02T10:19:25.496Z,84.35
2023-04-02T10:21:56.769Z,83.97
2023-04-02T10:24:28.443Z,84.35
2023-04-02T10:27:33.844Z,84.46
2023-04-02T10:30:24.441Z,83.46
2023-04-02T10:33:23.563Z,82.95
2023-04-02T10:36:06.581Z,83.05
2023-04-02T10:38:42.790Z,83.04
2023-04-02T10:41:32.882Z,81.40
2023-04-02T10:44:20.767Z,79.95
2023-04-02T10:47:07.921Z,79.95
2023-04-02T10:49:51.364Z,79.74
2023-04-02T10:52:50.497Z,79.28
2023-04-02T10:55:32.210Z,79.75
2023-04-02T10:58:07.356Z,79.74
2023-04-02T11:00:41.472Z,79.78
2023-04-02T11:03:37.613Z,79.59
2023-04-02T11:06:17.649Z,79.42
2023-04-02T11:08:50.110Z,79.74
2023-04-02T11:11:24.847Z,79.76
2023-04-02T11:13:59.295Z,78.56
2023-04-02T11:16:28.112Z,76.66
2023-04-02T11:19:15.820Z,75.48
2023-04-02T11:22:06.531Z,75.82
2023-04-02T11:24:44.312Z,75.08
2023-04-02T11:27:12.548Z,73.14
2023-04-02T11:29:53.116Z,72.67
2023-04-02T11:32:27.747Z,73.47
2023-04-02T11:35:06.698Z,72.98
2023-04-02T11:37:42.833Z,72.58
2023-04-02T11:40:11.031Z,72.19
2023-04-02T11:42:44.616Z,72.23
2023-04-02T11:45:23.438Z,71.98
2023-04-02T11:48:27.137Z,72.17
2023-04-02T11:50:55.820Z,72.14
2023-04-02T11:53:36.764Z,72.00
2023-04-02T11:56:18.276Z,71.52
2023-04-02T11:59:14.599Z,71.52
2023-04-02T12:02:10.403Z,72.14
2023-04-02T12:05:07.807Z,72.27
2023-04-02T12:08:07.761Z,72.03
2023-04-02T12:10:56.920Z,72.81
2023-04-02T12:13:40.661Z,72.71
2023-04-02T12:16:13.530Z,72.94
2023-04-02T12:18:54.650Z,73.76
2023-04-02T12:21:28.307Z,74.33
2023-04-02T12:23:59.524Z,74.97
2023-04-02T12:26:37.808Z,75.32
2023-04-02T12:29:28.571Z,75.68
2023-04-02T12:31:58.901Z,75.50
2023-04-02T12:34:29.952Z,75.79
2023-04-02T12:37:05.704Z,75.05
2023-04-02T12:39:35.073Z,75.09
2023-04-02T12:42:03.394Z,74.94
2023-04-02T12:44:33.101Z,74.68
2023-04-02T12:47:01.717Z,73.97
2023-04-02T12:49:43.989Z,74.03
2023-04-02T12:52:15.959Z,73.64
2023-04-02T12:54:57.505Z,73.60
2023-04-02T12:57:25.982Z,73.79
2023-04-02T13:00:00.657Z,73.88
2023-04-02T13:02:32.910Z,74.02
2023-04-02T13:05:02.447Z,74.20
2023-04-02T13:07:33.695Z,74.37
2023-04-02T13:10:23.268Z,74.27
2023-04-02T13:12:57.998Z,74.74
2023-04-02T13:15:33.601Z,74.79
2023-04-02T13:18:18.812Z,74.71
2023-04-02T13:20:59.887Z,74.35
2023-04-02T13:23:31.133Z,73.92
2023-04-02T13:26:17.224Z,74.28
2023-04-02T13:29:20.298Z,74.47
2023-04-02T13:31:49.677Z,74.16
2023-04-02T13:34:18.496Z,74.22
2023-04-02T13:36:47.316Z,74.18
2023-04-02T13:39:15.886Z,74.47
2023-04-02T13:42:03.043Z,74.32
2023-04-02T13:44:35.071Z,74.54
2023-04-02T13:47:03.870Z,74.30
2023-04-02T13:49:32.750Z,73.96
2023-04-02T13:52:05.743Z,74.39
2023-04-02T13:54:41.204Z,74.55
2023-04-02T13:57:09.653Z,74.38
2023-04-02T13:59:38.154Z,74.80
2023-04-02T14:02:10.821Z,75.62
2023-04-02T14:04:43.742Z,75.81
2023-04-02T14:07:24.610Z,76.15
2023-04-02T14:10:11.809Z,76.36
2023-04-02T14:12:59.945Z,76.50
2023-04-02T14:15:53.505Z,76.53
2023-04-02T14:19:01.097Z,77.10
2023-04-02T14:22:10.917Z,77.11
2023-04-02T14:24:53.110Z,77.75
2023-04-02T14:27:21.603Z,77.91
2023-04-02T14:30:02.671Z,78.15
2023-04-02T14:32:45.135Z,78.35
2023-04-02T14:35:38.969Z,78.62
2023-04-02T14:38:19.776Z,78.98
2023-04-02T14:40:51.752Z,79.44
2023-04-02T14:43:28.146Z,79.42
2023-04-02T14:46:03.016Z,79.42
2023-04-02T14:48:34.537Z,79.56
2023-04-02T14:51:21.485Z,79.54
2023-04-02T14:54:19.093Z,79.74
2023-04-02T14:57:17.056Z,79.62
2023-04-02T15:00:06.721Z,79.74
2023-04-02T15:02:49.499Z,79.47
2023-04-02T15:05:20.388Z,79.59
2023-04-02T15:08:03.596Z,79.75
2023-04-02T15:10:35.842Z,79.62
2023-04-02T15:13:12.673Z,79.53
2023-04-02T15:15:52.615Z,79.69
2023-04-02T15:18:21.113Z,79.79
2023-04-02T15:20:49.567Z,80.02
2023-04-02T15:23:29.330Z,80.01
2023-04-02T15:26:12.806Z,80.19
2023-04-02T15:29:29.203Z,80.34
2023-04-02T15:32:22.995Z,80.15
2023-04-02T15:34:55.466Z,80.40
2023-04-02T15:37:32.754Z,80.55
2023-04-02T15:40:23.872Z,80.51
2023-04-02T15:43:06.967Z,80.77
2023-04-02T15:45:49.925Z,81.19
2023-04-02T15:48:51.536Z,81.45
2023-04-02T15:51:33.014Z,81.56
2023-04-02T15:54:22.074Z,81.74
2023-04-02T15:57:20.190Z,81.79
2023-04-02T15:59:48.625Z,82.34
2023-04-02T16:02:44.999Z,82.22
2023-04-02T16:05:32.061Z,82.12
2023-04-02T16:08:15.912Z,82.16
2023-04-02T16:10:45.777Z,82.15
2023-04-02T16:13:17.468Z,82.06
2023-04-02T16:15:58.854Z,81.91
2023-04-02T16:18:38.499Z,81.86
2023-04-02T16:21:10.669Z,81.91
2023-04-02T16:23:40.653Z,82.01
2023-04-02T16:26:22.180Z,82.17
2023-04-02T16:29:19.293Z,81.80
2023-04-02T16:32:11.537Z,82.17
2023-04-02T16:35:09.545Z,82.36
2023-04-02T16:37:56.316Z,82.71
2023-04-02T16:40:25.972Z,82.92
2023-04-02T16:43:06.902Z,82.78
2023-04-02T16:45:43.455Z,82.85
2023-04-02T16:48:11.946Z,83.16
2023-04-02T16:50:58.546Z,83.53
2023-04-02T16:54:02.198Z,83.52
2023-04-02T16:56:54.494Z,83.32
2023-04-02T16:59:44.548Z,83.44
2023-04-02T17:02:42.582Z,83.47
2023-04-02T17:05:26.039Z,83.49
2023-04-02T17:08:03.688Z,83.70
2023-04-02T17:10:32.111Z,83.75
2023-04-02T17:13:13.158Z,83.23
2023-04-02T17:15:47.447Z,83.06
2023-04-02T17:18:24.803Z,82.78
2023-04-02T17:21:02.289Z,82.21
2023-04-02T17:23:38.442Z,82.35
2023-04-02T17:26:13.974Z,82.41
2023-04-02T17:28:44.574Z,82.58
2023-04-02T17:31:21.952Z,83.01
2023-04-02T17:33:50.602Z,83.16
2023-04-02T17:37:00.442Z,83.19
2023-04-02T17:39:42.026Z,82.83
2023-04-02T17:42:35.583Z,82.62
2023-04-02T17:45:17.591Z,82.86
2023-04-02T17:47:59.157Z,82.87
2023-04-02T17:51:01.837Z,82.42
2023-04-02T17:54:10.747Z,82.61
2023-04-02T17:57:11.739Z,82.56
2023-04-02T17:59:46.291Z,82.15
2023-04-02T18:02:39.599Z,82.14
2023-04-02T18:05:21.846Z,81.36
2023-04-02T18:08:12.641Z,80.88
2023-04-02T18:10:51.057Z,81.00
2023-04-02T18:13:29.372Z,81.34
2023-04-02T18:16:46.301Z,81.76
2023-04-02T18:19:27.815Z,83.33
2023-04-02T18:22:08.949Z,83.58
2023-04-02T18:24:55.521Z,84.00
2023-04-02T18:27:54.394Z,85.68
2023-04-02T18:30:41.135Z,86.94
2023-04-02T18:33:36.098Z,85.86
2023-04-02T18:37:34.776Z,85.79
2023-04-02T18:40:42.203Z,85.96
2023-04-02T18:43:19.817Z,85.65
2023-04-02T18:45:48.333Z,85.97
2023-04-02T18:48:32.127Z,85.82
2023-04-02T18:51:01.763Z,86.18
2023-04-02T18:53:32.916Z,86.13
2023-04-02T18:56:14.080Z,86.76
2023-04-02T18:58:52.902Z,87.25
2023-04-02T19:01:37.073Z,88.51
2023-04-02T19:04:15.645Z,88.98
2023-04-02T19:06:48.939Z,90.11
2023-04-02T19:09:31.608Z,90.66
2023-04-02T19:12:01.492Z,91.88
2023-04-02T19:14:30.278Z,91.88
2023-04-02T19:17:22.311Z,92.11
2023-04-02T19:20:14.941Z,92.30
2023-04-02T19:23:07.874Z,92.76
2023-04-02T19:25:49.765Z,94.04
2023-04-02T19:28:21.019Z,93.31
2023-04-02T19:30:56.767Z,93.18
2023-04-02T19:33:34.814Z,92.95
2023-04-02T19:36:18.447Z,92.15
2023-04-02T19:39:09.749Z,92.49
2023-04-02T19:41:44.345Z,91.86
2023-04-02T19:44:13.688Z,91.75
2023-04-02T19:46:43.031Z,91.50
2023-04-02T19:49:13.177Z,91.22
2023-04-02T19:51:41.565Z,90.93
2023-04-02T19:54:10.204Z,90.76
2023-04-02T19:56:38.743Z,90.53
2023-04-02T19:59:16.992Z,90.28
2023-04-02T20:01:47.547Z,90.64
2023-04-02T20:04:15.942Z,90.82
2023-04-02T20:06:44.849Z,90.61
2023-04-02T20:09:13.246Z,90.75
2023-04-02T20:11:41.738Z,91.09
2023-04-02T20:14:10.639Z,91.67
2023-04-02T20:16:39.470Z,91.54
2023-04-02T20:19:08.011Z,91.50
2023-04-02T20:21:38.533Z,92.13
2023-04-02T20:24:08.351Z,92.27
2023-04-02T20:26:36.749Z,92.17
2023-04-02T20:29:05.246Z,92.30
2023-04-02T20:31:34.208Z,92.78
2023-04-02T20:34:05.427Z,92.81
2023-04-02T20:36:34.175Z,92.69
2023-04-02T20:39:02.583Z,92.65
2023-04-02T20:41:31.357Z,92.87
2023-04-02T20:44:00.771Z,92.49
2023-04-02T20:46:29.890Z,92.82
2023-04-02T20:48:58.664Z,93.32
2023-04-02T20:51:27.044Z,93.65
2023-04-02T20:53:56.352Z,93.54
2023-04-02T20:56:26.812Z,93.62
2023-04-02T20:58:55.477Z,93.45
2023-04-02T21:01:26.702Z,93.53
2023-04-02T21:04:00.576Z,93.05
2023-04-02T21:06:31.680Z,92.69
2023-04-02T21:09:02.015Z,92.36
2023-04-02T21:11:30.802Z,92.04
2023-04-02T21:13:59.300Z,92.10
2023-04-02T21:16:31.505Z,92.11
2023-04-02T21:19:03.327Z,92.03
2023-04-02T21:21:32.591Z,91.91
2023-04-02T21:24:06.910Z,92.04
2023-04-02T21:26:41.964Z,92.08
2023-04-02T21:29:12.484Z,92.04
2023-04-02T21:31:41.666Z,92.09
2023-04-02T21:34:13.903Z,91.86
2023-04-02T21:36:44.974Z,91.77
2023-04-02T21:39:18.782Z,91.55
2023-04-02T21:41:50.308Z,91.76
2023-04-02T21:44:21.532Z,91.75
2023-04-02T21:46:53.666Z,91.94
2023-04-02T21:49:23.853Z,92.15
2023-04-02T21:51:52.629Z,91.97
2023-04-02T21:54:21.292Z,91.89
2023-04-02T21:56:50.550Z,91.92
2023-04-02T21:59:19.227Z,91.73
2023-04-02T22:01:52.372Z,91.52
2023-04-02T22:04:23.820Z,91.46
2023-04-02T22:06:52.975Z,91.44
2023-04-02T22:09:24.836Z,91.41
2023-04-02T22:11:59.489Z,91.42
2023-04-02T22:14:29.480Z,91.19
2023-04-02T22:17:01.591Z,91.09
2023-04-02T22:19:30.656Z,91.19
2023-04-02T22:21:59.147Z,91.04
2023-04-02T22:24:27.839Z,91.25
2023-04-02T22:26:56.521Z,91.14
2023-04-02T22:29:25.011Z,91.02
2023-04-02T22:31:53.493Z,91.13
2023-04-02T22:34:21.881Z,91.24
2023-04-02T22:36:50.579Z,91.33
2023-04-02T22:39:18.952Z,91.61
2023-04-02T22:41:48.154Z,91.50
2023-04-02T22:44:17.971Z,92.02
2023-04-02T22:46:46.765Z,91.91
2023-04-02T22:49:19.575Z,91.81
2023-04-02T22:51:48.043Z,91.97
2023-04-02T22:54:16.729Z,91.85
2023-04-02T22:56:45.360Z,91.78
2023-04-02T22:59:13.869Z,91.51
2023-04-02T23:01:42.213Z,91.35
2023-04-02T23:04:10.687Z,91.25
2023-04-02T23:06:39.167Z,91.27
2023-04-02T23:09:07.662Z,91.21
2023-04-02T23:11:36.449Z,91.17
2023-04-02T23:14:04.837Z,91.06
2023-04-02T23:16:33.341Z,91.00
2023-04-02T23:19:02.341Z,91.06
2023-04-02T23:21:30.920Z,91.23
2023-04-02T23:23:59.293Z,91.06
2023-04-02T23:26:31.611Z,90.91
2023-04-02T23:29:00.988Z,90.93
2023-04-02T23:31:30.889Z,90.83
2023-04-02T23:33:59.282Z,90.71
2023-04-02T23:36:28.886Z,90.34
2023-04-02T23:39:04.266Z,90.48
2023-04-02T23:41:32.644Z,90.20
2023-04-02T23:44:01.327Z,89.75
2023-04-02T23:46:31.976Z,89.23
2023-04-02T23:49:01.591Z,89.18
2023-04-02T23:51:32.421Z,89.04
2023-04-02T23:54:00.784Z,88.80
2023-04-02T23:56:29.283Z,88.85
2023-04-02T23:58:57.760Z,89.17
